sensor_id;sensor_type;location;lat;lon;timestamp;temperature;humidity
31133;DHT22;17779;50.942;4.026;2022-10-31T00:02:12;14.80;99.90
31133;DHT22;17779;50.942;4.026;2022-10-31T00:04:37;14.70;99.90
31133;DHT22;17779;50.942;4.026;2022-10-31T00:07:03;14.40;99.90
31133;DHT22;17779;50.942;4.026;2022-10-31T00:09:29;14.30;99.90
31133;DHT22;17779;50.942;4.026;2022-10-31T00:11:54;14.40;99.90
31133;DHT22;17779;50.942;4.026;2022-10-31T00:14:20;14.50;99.90
31133;DHT22;17779;50.942;4.026;2022-10-31T00:16:48;14.40;99.90
31133;DHT22;17779;50.942;4.026;2022-10-31T00:19:14;14.30;99.90
31133;DHT22;17779;50.942;4.026;2022-10-31T00:21:40;14.40;99.90
31133;DHT22;17779;50.942;4.026;2022-10-31T00:24:06;14.30;99.90
31133;DHT22;17779;50.942;4.026;2022-10-31T00:26:32;14.10;99.90
31133;DHT22;17779;50.942;4.026;2022-10-31T00:28:58;13.90;99.90
31133;DHT22;17779;50.942;4.026;2022-10-31T00:31:25;13.90;99.90
31133;DHT22;17779;50.942;4.026;2022-10-31T00:33:51;13.80;99.90
31133;DHT22;17779;50.942;4.026;2022-10-31T00:36:17;13.70;99.90
31133;DHT22;17779;50.942;4.026;2022-10-31T00:38:45;13.50;99.90
31133;DHT22;17779;50.942;4.026;2022-10-31T00:41:12;13.50;99.90
31133;DHT22;17779;50.942;4.026;2022-10-31T00:43:39;13.50;99.90
31133;DHT22;17779;50.942;4.026;2022-10-31T00:46:05;13.40;99.90
31133;DHT22;17779;50.942;4.026;2022-10-31T00:48:31;13.50;99.90
31133;DHT22;17779;50.942;4.026;2022-10-31T00:53:28;13.30;99.90
31133;DHT22;17779;50.942;4.026;2022-10-31T00:55:54;13.30;99.90
31133;DHT22;17779;50.942;4.026;2022-10-31T00:58:21;13.30;99.90
31133;DHT22;17779;50.942;4.026;2022-10-31T01:00:48;13.50;99.90
31133;DHT22;17779;50.942;4.026;2022-10-31T01:03:23;13.60;99.90
31133;DHT22;17779;50.942;4.026;2022-10-31T01:05:58;13.80;99.90
31133;DHT22;17779;50.942;4.026;2022-10-31T01:08:25;13.80;99.90
31133;DHT22;17779;50.942;4.026;2022-10-31T01:11:25;13.80;99.90
31133;DHT22;17779;50.942;4.026;2022-10-31T01:13:46;14.00;99.90
31133;DHT22;17779;50.942;4.026;2022-10-31T01:16:14;14.00;99.90
31133;DHT22;17779;50.942;4.026;2022-10-31T01:18:40;14.00;99.90
31133;DHT22;17779;50.942;4.026;2022-10-31T01:21:12;13.80;99.90
31133;DHT22;17779;50.942;4.026;2022-10-31T01:23:40;13.60;99.90
31133;DHT22;17779;50.942;4.026;2022-10-31T01:28:35;13.50;99.90
31133;DHT22;17779;50.942;4.026;2022-10-31T01:33:30;13.40;99.90
31133;DHT22;17779;50.942;4.026;2022-10-31T01:38:25;13.30;99.90
31133;DHT22;17779;50.942;4.026;2022-10-31T01:40:50;13.10;99.90
31133;DHT22;17779;50.942;4.026;2022-10-31T01:43:16;13.20;99.90
31133;DHT22;17779;50.942;4.026;2022-10-31T01:45:43;13.10;99.90
31133;DHT22;17779;50.942;4.026;2022-10-31T01:50:45;13.00;99.90
31133;DHT22;17779;50.942;4.026;2022-10-31T01:53:13;13.00;99.90
31133;DHT22;17779;50.942;4.026;2022-10-31T01:55:40;12.90;99.90
31133;DHT22;17779;50.942;4.026;2022-10-31T01:58:18;13.00;99.90
31133;DHT22;17779;50.942;4.026;2022-10-31T02:00:47;13.00;99.90
31133;DHT22;17779;50.942;4.026;2022-10-31T02:03:16;13.20;99.90
31133;DHT22;17779;50.942;4.026;2022-10-31T02:05:44;13.10;99.90
31133;DHT22;17779;50.942;4.026;2022-10-31T02:10:42;12.80;99.90
31133;DHT22;17779;50.942;4.026;2022-10-31T02:13:08;12.80;99.90
31133;DHT22;17779;50.942;4.026;2022-10-31T02:15:36;12.80;99.90
31133;DHT22;17779;50.942;4.026;2022-10-31T02:18:05;12.80;99.90
31133;DHT22;17779;50.942;4.026;2022-10-31T02:20:39;12.70;99.90
31133;DHT22;17779;50.942;4.026;2022-10-31T02:23:24;12.80;99.90
31133;DHT22;17779;50.942;4.026;2022-10-31T02:41:46;12.60;99.90
31133;DHT22;17779;50.942;4.026;2022-10-31T02:44:28;12.70;99.90
31133;DHT22;17779;50.942;4.026;2022-10-31T02:47:04;12.70;99.90
31133;DHT22;17779;50.942;4.026;2022-10-31T02:49:32;12.70;99.90
31133;DHT22;17779;50.942;4.026;2022-10-31T02:52:00;12.70;99.90
31133;DHT22;17779;50.942;4.026;2022-10-31T02:54:28;12.70;99.90
31133;DHT22;17779;50.942;4.026;2022-10-31T02:57:01;12.90;99.90
31133;DHT22;17779;50.942;4.026;2022-10-31T02:59:30;12.80;99.90
31133;DHT22;17779;50.942;4.026;2022-10-31T03:02:10;12.70;99.90
31133;DHT22;17779;50.942;4.026;2022-10-31T03:05:02;12.70;99.90
31133;DHT22;17779;50.942;4.026;2022-10-31T03:15:28;12.70;99.90
31133;DHT22;17779;50.942;4.026;2022-10-31T03:18:04;12.60;99.90
31133;DHT22;17779;50.942;4.026;2022-10-31T03:20:40;12.70;99.90
31133;DHT22;17779;50.942;4.026;2022-10-31T03:23:08;12.60;99.90
31133;DHT22;17779;50.942;4.026;2022-10-31T03:25:36;12.60;99.90
31133;DHT22;17779;50.942;4.026;2022-10-31T03:28:03;12.60;99.90
31133;DHT22;17779;50.942;4.026;2022-10-31T03:30:29;12.60;99.90
31133;DHT22;17779;50.942;4.026;2022-10-31T03:32:56;12.80;99.90
31133;DHT22;17779;50.942;4.026;2022-10-31T03:35:23;12.90;99.90
31133;DHT22;17779;50.942;4.026;2022-10-31T03:37:50;12.90;99.90
31133;DHT22;17779;50.942;4.026;2022-10-31T03:40:17;12.80;99.90
31133;DHT22;17779;50.942;4.026;2022-10-31T03:42:48;12.50;99.90
31133;DHT22;17779;50.942;4.026;2022-10-31T03:45:18;12.50;99.90
31133;DHT22;17779;50.942;4.026;2022-10-31T03:47:52;12.60;99.90
31133;DHT22;17779;50.942;4.026;2022-10-31T03:50:18;12.60;99.90
31133;DHT22;17779;50.942;4.026;2022-10-31T03:55:18;12.80;99.90
31133;DHT22;17779;50.942;4.026;2022-10-31T04:00:21;12.80;99.90
31133;DHT22;17779;50.942;4.026;2022-10-31T04:05:30;12.60;99.90
31133;DHT22;17779;50.942;4.026;2022-10-31T04:07:59;12.40;99.90
31133;DHT22;17779;50.942;4.026;2022-10-31T04:10:29;12.20;99.90
31133;DHT22;17779;50.942;4.026;2022-10-31T04:12:58;12.40;99.90
31133;DHT22;17779;50.942;4.026;2022-10-31T04:15:25;12.30;99.90
31133;DHT22;17779;50.942;4.026;2022-10-31T04:17:53;12.10;99.90
31133;DHT22;17779;50.942;4.026;2022-10-31T04:20:28;12.20;99.90
31133;DHT22;17779;50.942;4.026;2022-10-31T04:22:54;12.10;99.90
31133;DHT22;17779;50.942;4.026;2022-10-31T04:25:19;12.00;99.90
31133;DHT22;17779;50.942;4.026;2022-10-31T04:27:47;12.00;99.90
31133;DHT22;17779;50.942;4.026;2022-10-31T04:30:14;12.20;99.90
31133;DHT22;17779;50.942;4.026;2022-10-31T04:32:39;12.30;99.90
31133;DHT22;17779;50.942;4.026;2022-10-31T04:35:05;12.20;99.90
31133;DHT22;17779;50.942;4.026;2022-10-31T04:37:33;11.90;99.90
31133;DHT22;17779;50.942;4.026;2022-10-31T04:39:58;11.80;99.90
31133;DHT22;17779;50.942;4.026;2022-10-31T04:42:24;11.90;99.90
31133;DHT22;17779;50.942;4.026;2022-10-31T04:44:49;12.00;99.90
31133;DHT22;17779;50.942;4.026;2022-10-31T04:47:16;12.20;99.90
31133;DHT22;17779;50.942;4.026;2022-10-31T04:49:42;12.30;99.90
31133;DHT22;17779;50.942;4.026;2022-10-31T04:52:08;12.30;99.90
31133;DHT22;17779;50.942;4.026;2022-10-31T04:54:35;12.30;99.90
31133;DHT22;17779;50.942;4.026;2022-10-31T04:59:31;12.40;99.90
31133;DHT22;17779;50.942;4.026;2022-10-31T05:01:56;12.20;99.90
31133;DHT22;17779;50.942;4.026;2022-10-31T05:04:22;12.00;99.90
31133;DHT22;17779;50.942;4.026;2022-10-31T05:06:50;11.80;99.90
31133;DHT22;17779;50.942;4.026;2022-10-31T05:09:15;11.70;99.90
31133;DHT22;17779;50.942;4.026;2022-10-31T05:11:42;11.70;99.90
31133;DHT22;17779;50.942;4.026;2022-10-31T05:14:08;11.60;99.90
31133;DHT22;17779;50.942;4.026;2022-10-31T05:16:45;11.60;99.90
31133;DHT22;17779;50.942;4.026;2022-10-31T05:19:12;11.50;99.90
31133;DHT22;17779;50.942;4.026;2022-10-31T05:21:38;11.50;99.90
31133;DHT22;17779;50.942;4.026;2022-10-31T05:24:04;11.50;99.90
31133;DHT22;17779;50.942;4.026;2022-10-31T05:26:30;11.50;99.90
31133;DHT22;17779;50.942;4.026;2022-10-31T05:28:57;11.40;99.90
31133;DHT22;17779;50.942;4.026;2022-10-31T05:31:24;11.30;99.90
31133;DHT22;17779;50.942;4.026;2022-10-31T05:33:49;11.40;99.90
31133;DHT22;17779;50.942;4.026;2022-10-31T05:36:16;11.50;99.90
31133;DHT22;17779;50.942;4.026;2022-10-31T05:38:42;11.60;99.90
31133;DHT22;17779;50.942;4.026;2022-10-31T05:41:11;11.60;99.90
31133;DHT22;17779;50.942;4.026;2022-10-31T05:43:38;11.90;99.90
31133;DHT22;17779;50.942;4.026;2022-10-31T05:46:04;12.00;99.90
31133;DHT22;17779;50.942;4.026;2022-10-31T05:48:31;12.00;99.90
31133;DHT22;17779;50.942;4.026;2022-10-31T05:50:57;11.90;99.90
31133;DHT22;17779;50.942;4.026;2022-10-31T05:53:24;11.90;99.90
31133;DHT22;17779;50.942;4.026;2022-10-31T05:58:19;11.90;99.90
31133;DHT22;17779;50.942;4.026;2022-10-31T06:00:47;11.90;99.90
31133;DHT22;17779;50.942;4.026;2022-10-31T06:03:14;11.80;99.90
31133;DHT22;17779;50.942;4.026;2022-10-31T06:05:40;11.90;99.90
31133;DHT22;17779;50.942;4.026;2022-10-31T06:10:35;11.80;99.90
31133;DHT22;17779;50.942;4.026;2022-10-31T06:13:01;11.80;99.90
31133;DHT22;17779;50.942;4.026;2022-10-31T06:15:27;11.80;99.90
31133;DHT22;17779;50.942;4.026;2022-10-31T06:20:27;12.10;99.90
31133;DHT22;17779;50.942;4.026;2022-10-31T06:22:53;12.10;99.90
31133;DHT22;17779;50.942;4.026;2022-10-31T06:25:19;12.30;99.90
31133;DHT22;17779;50.942;4.026;2022-10-31T06:27:44;12.40;99.90
31133;DHT22;17779;50.942;4.026;2022-10-31T06:30:10;12.30;99.90
31133;DHT22;17779;50.942;4.026;2022-10-31T06:32:36;12.30;99.90
31133;DHT22;17779;50.942;4.026;2022-10-31T06:35:05;12.20;99.90
31133;DHT22;17779;50.942;4.026;2022-10-31T06:37:30;12.30;99.90
31133;DHT22;17779;50.942;4.026;2022-10-31T06:39:56;12.40;99.90
31133;DHT22;17779;50.942;4.026;2022-10-31T06:42:23;12.40;99.90
31133;DHT22;17779;50.942;4.026;2022-10-31T06:44:49;12.40;99.90
31133;DHT22;17779;50.942;4.026;2022-10-31T06:47:17;12.30;99.90
31133;DHT22;17779;50.942;4.026;2022-10-31T06:49:42;12.50;99.90
31133;DHT22;17779;50.942;4.026;2022-10-31T06:52:08;12.80;99.90
31133;DHT22;17779;50.942;4.026;2022-10-31T06:54:35;12.80;99.90
31133;DHT22;17779;50.942;4.026;2022-10-31T06:57:00;13.00;99.90
31133;DHT22;17779;50.942;4.026;2022-10-31T06:59:26;12.70;99.90
31133;DHT22;17779;50.942;4.026;2022-10-31T07:01:53;12.60;99.90
31133;DHT22;17779;50.942;4.026;2022-10-31T07:04:21;12.60;99.90
31133;DHT22;17779;50.942;4.026;2022-10-31T07:06:49;12.60;99.90
31133;DHT22;17779;50.942;4.026;2022-10-31T07:09:18;12.60;99.90
31133;DHT22;17779;50.942;4.026;2022-10-31T07:11:45;12.80;99.90
31133;DHT22;17779;50.942;4.026;2022-10-31T07:14:13;12.70;99.90
31133;DHT22;17779;50.942;4.026;2022-10-31T07:16:40;12.80;99.90
31133;DHT22;17779;50.942;4.026;2022-10-31T07:19:06;12.90;99.90
31133;DHT22;17779;50.942;4.026;2022-10-31T07:21:33;13.10;99.90
31133;DHT22;17779;50.942;4.026;2022-10-31T07:24:00;13.20;99.90
31133;DHT22;17779;50.942;4.026;2022-10-31T07:26:26;13.50;99.90
31133;DHT22;17779;50.942;4.026;2022-10-31T07:28:55;13.50;99.90
31133;DHT22;17779;50.942;4.026;2022-10-31T07:31:20;13.30;99.90
31133;DHT22;17779;50.942;4.026;2022-10-31T07:33:47;13.40;99.90
31133;DHT22;17779;50.942;4.026;2022-10-31T07:36:12;13.50;99.90
31133;DHT22;17779;50.942;4.026;2022-10-31T07:38:38;13.70;99.90
31133;DHT22;17779;50.942;4.026;2022-10-31T07:41:04;13.60;99.90
31133;DHT22;17779;50.942;4.026;2022-10-31T07:43:32;13.60;99.90
31133;DHT22;17779;50.942;4.026;2022-10-31T07:45:59;13.80;99.90
31133;DHT22;17779;50.942;4.026;2022-10-31T07:48:26;13.70;99.90
31133;DHT22;17779;50.942;4.026;2022-10-31T07:50:52;13.70;99.90
31133;DHT22;17779;50.942;4.026;2022-10-31T07:53:19;13.60;99.90
31133;DHT22;17779;50.942;4.026;2022-10-31T07:55:47;13.70;99.90
31133;DHT22;17779;50.942;4.026;2022-10-31T07:58:13;13.90;99.90
31133;DHT22;17779;50.942;4.026;2022-10-31T08:00:42;13.90;99.90
31133;DHT22;17779;50.942;4.026;2022-10-31T08:03:10;14.10;99.90
31133;DHT22;17779;50.942;4.026;2022-10-31T08:05:36;13.90;99.90
31133;DHT22;17779;50.942;4.026;2022-10-31T08:08:03;14.10;99.90
31133;DHT22;17779;50.942;4.026;2022-10-31T08:12:59;14.40;99.90
31133;DHT22;17779;50.942;4.026;2022-10-31T08:15:27;14.30;99.90
31133;DHT22;17779;50.942;4.026;2022-10-31T08:17:53;14.30;99.90
31133;DHT22;17779;50.942;4.026;2022-10-31T08:20:20;14.40;99.90
31133;DHT22;17779;50.942;4.026;2022-10-31T08:22:54;14.50;99.90
31133;DHT22;17779;50.942;4.026;2022-10-31T08:25:20;14.40;99.90
31133;DHT22;17779;50.942;4.026;2022-10-31T08:27:54;14.50;99.90
31133;DHT22;17779;50.942;4.026;2022-10-31T08:32:59;14.60;99.90
31133;DHT22;17779;50.942;4.026;2022-10-31T08:35:26;14.70;99.90
31133;DHT22;17779;50.942;4.026;2022-10-31T08:37:56;14.90;99.90
31133;DHT22;17779;50.942;4.026;2022-10-31T08:40:22;14.80;99.90
31133;DHT22;17779;50.942;4.026;2022-10-31T08:42:54;15.00;99.90
31133;DHT22;17779;50.942;4.026;2022-10-31T08:45:22;15.30;99.90
31133;DHT22;17779;50.942;4.026;2022-10-31T08:47:50;15.20;99.90
31133;DHT22;17779;50.942;4.026;2022-10-31T08:50:17;14.80;99.90
31133;DHT22;17779;50.942;4.026;2022-10-31T08:52:46;14.90;99.90
31133;DHT22;17779;50.942;4.026;2022-10-31T08:55:15;15.10;99.90
31133;DHT22;17779;50.942;4.026;2022-10-31T08:57:43;15.30;99.90
31133;DHT22;17779;50.942;4.026;2022-10-31T09:02:43;15.30;99.90
31133;DHT22;17779;50.942;4.026;2022-10-31T09:07:40;15.20;99.90
31133;DHT22;17779;50.942;4.026;2022-10-31T09:10:05;15.20;99.90
31133;DHT22;17779;50.942;4.026;2022-10-31T09:12:32;15.20;99.90
31133;DHT22;17779;50.942;4.026;2022-10-31T09:14:59;15.30;99.90
31133;DHT22;17779;50.942;4.026;2022-10-31T09:17:26;15.10;99.90
31133;DHT22;17779;50.942;4.026;2022-10-31T09:19:55;14.80;99.90
31133;DHT22;17779;50.942;4.026;2022-10-31T09:24:52;14.60;99.90
31133;DHT22;17779;50.942;4.026;2022-10-31T09:27:18;14.60;99.90
31133;DHT22;17779;50.942;4.026;2022-10-31T09:29:44;14.90;99.90
31133;DHT22;17779;50.942;4.026;2022-10-31T09:32:11;15.10;99.90
31133;DHT22;17779;50.942;4.026;2022-10-31T09:37:05;15.00;99.90
31133;DHT22;17779;50.942;4.026;2022-10-31T09:39:31;14.70;99.90
31133;DHT22;17779;50.942;4.026;2022-10-31T09:47:17;14.90;99.90
31133;DHT22;17779;50.942;4.026;2022-10-31T09:54:55;15.00;99.90
31133;DHT22;17779;50.942;4.026;2022-10-31T09:57:32;15.10;99.90
31133;DHT22;17779;50.942;4.026;2022-10-31T10:00:03;15.50;99.90
31133;DHT22;17779;50.942;4.026;2022-10-31T10:02:30;16.00;99.90
31133;DHT22;17779;50.942;4.026;2022-10-31T10:05:01;16.30;99.90
31133;DHT22;17779;50.942;4.026;2022-10-31T10:10:34;16.60;99.90
31133;DHT22;17779;50.942;4.026;2022-10-31T10:15:54;16.70;99.90
31133;DHT22;17779;50.942;4.026;2022-10-31T10:21:18;17.40;99.90
31133;DHT22;17779;50.942;4.026;2022-10-31T10:23:54;17.30;99.90
31133;DHT22;17779;50.942;4.026;2022-10-31T10:26:29;17.00;99.90
31133;DHT22;17779;50.942;4.026;2022-10-31T10:29:00;17.00;99.90
31133;DHT22;17779;50.942;4.026;2022-10-31T10:31:32;17.70;99.90
31133;DHT22;17779;50.942;4.026;2022-10-31T10:36:47;16.80;99.90
31133;DHT22;17779;50.942;4.026;2022-10-31T10:39:16;17.60;99.90
31133;DHT22;17779;50.942;4.026;2022-10-31T10:41:44;18.00;99.90
31133;DHT22;17779;50.942;4.026;2022-10-31T10:44:12;18.20;99.90
31133;DHT22;17779;50.942;4.026;2022-10-31T10:46:42;18.40;99.90
31133;DHT22;17779;50.942;4.026;2022-10-31T10:54:59;18.60;99.90
31133;DHT22;17779;50.942;4.026;2022-10-31T11:00:25;18.00;99.90
31133;DHT22;17779;50.942;4.026;2022-10-31T11:05:39;16.90;99.90
31133;DHT22;17779;50.942;4.026;2022-10-31T11:08:10;16.60;99.90
31133;DHT22;17779;50.942;4.026;2022-10-31T11:10:35;16.50;99.90
31133;DHT22;17779;50.942;4.026;2022-10-31T11:15:33;16.40;99.90
31133;DHT22;17779;50.942;4.026;2022-10-31T11:18:00;16.40;99.90
31133;DHT22;17779;50.942;4.026;2022-10-31T11:20:32;16.20;99.90
31133;DHT22;17779;50.942;4.026;2022-10-31T11:23:18;16.40;99.90
31133;DHT22;17779;50.942;4.026;2022-10-31T11:26:04;16.50;99.90
31133;DHT22;17779;50.942;4.026;2022-10-31T11:28:31;16.70;99.90
31133;DHT22;17779;50.942;4.026;2022-10-31T11:35:58;17.20;99.90
31133;DHT22;17779;50.942;4.026;2022-10-31T11:38:29;17.10;99.90
31133;DHT22;17779;50.942;4.026;2022-10-31T11:41:12;17.10;99.90
31133;DHT22;17779;50.942;4.026;2022-10-31T11:43:46;17.00;99.90
31133;DHT22;17779;50.942;4.026;2022-10-31T11:46:21;16.90;99.90
31133;DHT22;17779;50.942;4.026;2022-10-31T11:48:49;17.10;99.90
31133;DHT22;17779;50.942;4.026;2022-10-31T11:51:25;17.20;99.90
31133;DHT22;17779;50.942;4.026;2022-10-31T11:56:20;17.70;99.90
31133;DHT22;17779;50.942;4.026;2022-10-31T11:58:56;17.90;99.90
31133;DHT22;17779;50.942;4.026;2022-10-31T12:01:26;17.80;99.90
31133;DHT22;17779;50.942;4.026;2022-10-31T12:06:28;18.10;99.90
31133;DHT22;17779;50.942;4.026;2022-10-31T12:08:56;18.40;99.90
31133;DHT22;17779;50.942;4.026;2022-10-31T12:19:35;18.40;99.90
31133;DHT22;17779;50.942;4.026;2022-10-31T12:22:17;19.00;99.90
31133;DHT22;17779;50.942;4.026;2022-10-31T12:27:24;19.70;99.90
31133;DHT22;17779;50.942;4.026;2022-10-31T12:32:40;18.80;99.90
31133;DHT22;17779;50.942;4.026;2022-10-31T12:37:46;18.00;99.90
31133;DHT22;17779;50.942;4.026;2022-10-31T12:40:25;17.70;99.90
31133;DHT22;17779;50.942;4.026;2022-10-31T12:48:16;18.50;99.90
31133;DHT22;17779;50.942;4.026;2022-10-31T12:58:31;19.70;99.90
31133;DHT22;17779;50.942;4.026;2022-10-31T13:01:02;19.10;99.90
31133;DHT22;17779;50.942;4.026;2022-10-31T13:09:05;18.40;99.90
31133;DHT22;17779;50.942;4.026;2022-10-31T13:11:33;18.30;99.90
31133;DHT22;17779;50.942;4.026;2022-10-31T13:16:40;18.60;99.90
31133;DHT22;17779;50.942;4.026;2022-10-31T13:19:22;19.10;99.90
31133;DHT22;17779;50.942;4.026;2022-10-31T13:21:57;19.70;99.90
31133;DHT22;17779;50.942;4.026;2022-10-31T13:25:28;20.30;99.90
31133;DHT22;17779;50.942;4.026;2022-10-31T13:27:29;21.80;99.90
31133;DHT22;17779;50.942;4.026;2022-10-31T13:30:17;22.80;99.90
31133;DHT22;17779;50.942;4.026;2022-10-31T13:32:52;22.40;99.90
31133;DHT22;17779;50.942;4.026;2022-10-31T13:35:24;21.10;99.90
31133;DHT22;17779;50.942;4.026;2022-10-31T13:38:03;20.50;99.90
31133;DHT22;17779;50.942;4.026;2022-10-31T13:40:37;20.10;99.90
31133;DHT22;17779;50.942;4.026;2022-10-31T13:45:55;19.80;99.90
31133;DHT22;17779;50.942;4.026;2022-10-31T13:48:34;19.70;99.90
31133;DHT22;17779;50.942;4.026;2022-10-31T13:51:04;19.60;99.90
31133;DHT22;17779;50.942;4.026;2022-10-31T13:53:39;19.40;99.90
31133;DHT22;17779;50.942;4.026;2022-10-31T13:58:33;19.70;99.90
31133;DHT22;17779;50.942;4.026;2022-10-31T14:01:18;19.80;99.90
31133;DHT22;17779;50.942;4.026;2022-10-31T14:03:55;19.70;99.90
31133;DHT22;17779;50.942;4.026;2022-10-31T14:06:22;19.70;99.90
31133;DHT22;17779;50.942;4.026;2022-10-31T14:08:53;19.50;99.90
31133;DHT22;17779;50.942;4.026;2022-10-31T14:11:22;19.50;99.90
31133;DHT22;17779;50.942;4.026;2022-10-31T14:13:49;19.60;99.90
31133;DHT22;17779;50.942;4.026;2022-10-31T14:18:48;19.30;99.90
31133;DHT22;17779;50.942;4.026;2022-10-31T14:23:53;19.40;99.90
31133;DHT22;17779;50.942;4.026;2022-10-31T14:26:29;19.30;99.90
31133;DHT22;17779;50.942;4.026;2022-10-31T14:29:00;19.40;99.90
31133;DHT22;17779;50.942;4.026;2022-10-31T14:34:02;19.60;99.90
31133;DHT22;17779;50.942;4.026;2022-10-31T14:46:41;19.40;99.90
31133;DHT22;17779;50.942;4.026;2022-10-31T14:51:57;19.20;99.90
31133;DHT22;17779;50.942;4.026;2022-10-31T14:54:41;19.10;99.90
31133;DHT22;17779;50.942;4.026;2022-10-31T14:57:14;19.00;99.90
31133;DHT22;17779;50.942;4.026;2022-10-31T14:59:42;19.00;99.90
31133;DHT22;17779;50.942;4.026;2022-10-31T15:02:48;19.00;99.90
31133;DHT22;17779;50.942;4.026;2022-10-31T15:05:10;18.90;99.90
31133;DHT22;17779;50.942;4.026;2022-10-31T15:07:36;19.10;99.90
31133;DHT22;17779;50.942;4.026;2022-10-31T15:10:06;19.00;99.90
31133;DHT22;17779;50.942;4.026;2022-10-31T15:12:35;19.00;99.90
31133;DHT22;17779;50.942;4.026;2022-10-31T15:17:51;18.90;99.90
31133;DHT22;17779;50.942;4.026;2022-10-31T15:20:22;18.90;99.90
31133;DHT22;17779;50.942;4.026;2022-10-31T15:22:48;19.00;99.90
31133;DHT22;17779;50.942;4.026;2022-10-31T15:27:47;19.10;99.90
31133;DHT22;17779;50.942;4.026;2022-10-31T15:30:18;19.10;99.90
31133;DHT22;17779;50.942;4.026;2022-10-31T15:32:45;19.10;99.90
31133;DHT22;17779;50.942;4.026;2022-10-31T15:35:33;19.10;99.90
31133;DHT22;17779;50.942;4.026;2022-10-31T15:38:00;19.10;99.90
31133;DHT22;17779;50.942;4.026;2022-10-31T15:40:26;19.00;99.90
31133;DHT22;17779;50.942;4.026;2022-10-31T15:45:22;18.90;99.90
31133;DHT22;17779;50.942;4.026;2022-10-31T15:48:03;18.80;99.90
31133;DHT22;17779;50.942;4.026;2022-10-31T15:50:38;18.90;99.90
31133;DHT22;17779;50.942;4.026;2022-10-31T15:53:06;18.90;99.90
31133;DHT22;17779;50.942;4.026;2022-10-31T15:55:38;18.90;99.90
31133;DHT22;17779;50.942;4.026;2022-10-31T15:58:12;18.90;99.90
31133;DHT22;17779;50.942;4.026;2022-10-31T16:00:41;18.90;99.90
31133;DHT22;17779;50.942;4.026;2022-10-31T16:05:44;18.70;99.90
31133;DHT22;17779;50.942;4.026;2022-10-31T16:16:10;18.50;99.90
31133;DHT22;17779;50.942;4.026;2022-10-31T16:18:37;18.50;99.90
31133;DHT22;17779;50.942;4.026;2022-10-31T16:21:03;18.50;99.90
31133;DHT22;17779;50.942;4.026;2022-10-31T16:23:32;18.50;99.90
31133;DHT22;17779;50.942;4.026;2022-10-31T16:25:58;18.30;99.90
31133;DHT22;17779;50.942;4.026;2022-10-31T16:28:24;18.10;99.90
31133;DHT22;17779;50.942;4.026;2022-10-31T16:30:53;18.00;99.90
31133;DHT22;17779;50.942;4.026;2022-10-31T16:33:25;17.90;99.90
31133;DHT22;17779;50.942;4.026;2022-10-31T16:35:54;18.00;99.90
31133;DHT22;17779;50.942;4.026;2022-10-31T16:38:19;17.90;99.90
31133;DHT22;17779;50.942;4.026;2022-10-31T16:40:47;17.80;99.90
31133;DHT22;17779;50.942;4.026;2022-10-31T16:43:15;17.80;99.90
31133;DHT22;17779;50.942;4.026;2022-10-31T16:45:43;18.00;99.90
31133;DHT22;17779;50.942;4.026;2022-10-31T16:48:11;17.80;99.90
31133;DHT22;17779;50.942;4.026;2022-10-31T16:50:37;17.90;99.90
31133;DHT22;17779;50.942;4.026;2022-10-31T16:53:03;17.60;99.90
31133;DHT22;17779;50.942;4.026;2022-10-31T16:58:01;17.60;99.90
31133;DHT22;17779;50.942;4.026;2022-10-31T17:00:27;17.60;99.90
31133;DHT22;17779;50.942;4.026;2022-10-31T17:02:54;17.50;99.90
31133;DHT22;17779;50.942;4.026;2022-10-31T17:05:22;17.50;99.90
31133;DHT22;17779;50.942;4.026;2022-10-31T17:07:55;17.40;99.90
31133;DHT22;17779;50.942;4.026;2022-10-31T17:10:22;17.30;99.90
31133;DHT22;17779;50.942;4.026;2022-10-31T17:12:47;17.20;99.90
31133;DHT22;17779;50.942;4.026;2022-10-31T17:15:20;17.10;99.90
31133;DHT22;17779;50.942;4.026;2022-10-31T17:17:50;17.10;99.90
31133;DHT22;17779;50.942;4.026;2022-10-31T17:22:48;17.10;99.90
31133;DHT22;17779;50.942;4.026;2022-10-31T17:25:19;17.10;99.90
31133;DHT22;17779;50.942;4.026;2022-10-31T17:27:44;17.10;99.90
31133;DHT22;17779;50.942;4.026;2022-10-31T17:30:11;17.10;99.90
31133;DHT22;17779;50.942;4.026;2022-10-31T17:32:37;17.10;99.90
31133;DHT22;17779;50.942;4.026;2022-10-31T17:35:03;17.00;99.90
31133;DHT22;17779;50.942;4.026;2022-10-31T17:37:28;17.00;99.90
31133;DHT22;17779;50.942;4.026;2022-10-31T17:39:55;17.00;99.90
31133;DHT22;17779;50.942;4.026;2022-10-31T17:42:21;16.90;99.90
31133;DHT22;17779;50.942;4.026;2022-10-31T17:44:48;16.90;99.90
31133;DHT22;17779;50.942;4.026;2022-10-31T17:47:14;16.90;99.90
31133;DHT22;17779;50.942;4.026;2022-10-31T17:49:42;16.90;99.90
31133;DHT22;17779;50.942;4.026;2022-10-31T17:52:08;16.80;99.90
31133;DHT22;17779;50.942;4.026;2022-10-31T17:54:36;16.80;99.90
31133;DHT22;17779;50.942;4.026;2022-10-31T17:57:01;16.90;99.90
31133;DHT22;17779;50.942;4.026;2022-10-31T17:59:28;16.90;99.90
31133;DHT22;17779;50.942;4.026;2022-10-31T18:01:55;16.90;99.90
31133;DHT22;17779;50.942;4.026;2022-10-31T18:04:20;16.80;99.90
31133;DHT22;17779;50.942;4.026;2022-10-31T18:06:46;16.80;99.90
31133;DHT22;17779;50.942;4.026;2022-10-31T18:09:14;16.80;99.90
31133;DHT22;17779;50.942;4.026;2022-10-31T18:11:43;16.90;99.90
31133;DHT22;17779;50.942;4.026;2022-10-31T18:14:09;17.00;99.90
31133;DHT22;17779;50.942;4.026;2022-10-31T18:16:35;16.90;99.90
31133;DHT22;17779;50.942;4.026;2022-10-31T18:19:02;16.90;99.90
31133;DHT22;17779;50.942;4.026;2022-10-31T18:21:29;16.90;99.90
31133;DHT22;17779;50.942;4.026;2022-10-31T18:23:56;17.00;99.90
31133;DHT22;17779;50.942;4.026;2022-10-31T18:26:22;17.00;99.90
31133;DHT22;17779;50.942;4.026;2022-10-31T18:28:48;16.90;99.90
31133;DHT22;17779;50.942;4.026;2022-10-31T18:31:14;16.90;99.90
31133;DHT22;17779;50.942;4.026;2022-10-31T18:33:40;16.90;99.90
31133;DHT22;17779;50.942;4.026;2022-10-31T18:36:07;16.90;99.90
31133;DHT22;17779;50.942;4.026;2022-10-31T18:38:36;16.90;99.90
31133;DHT22;17779;50.942;4.026;2022-10-31T18:41:02;16.90;99.90
31133;DHT22;17779;50.942;4.026;2022-10-31T18:43:27;16.90;99.90
31133;DHT22;17779;50.942;4.026;2022-10-31T18:45:53;16.80;99.90
31133;DHT22;17779;50.942;4.026;2022-10-31T18:48:19;16.90;99.90
31133;DHT22;17779;50.942;4.026;2022-10-31T18:50:45;16.80;99.90
31133;DHT22;17779;50.942;4.026;2022-10-31T18:53:11;16.70;99.90
31133;DHT22;17779;50.942;4.026;2022-10-31T18:55:40;16.80;99.90
31133;DHT22;17779;50.942;4.026;2022-10-31T18:58:06;16.90;99.90
31133;DHT22;17779;50.942;4.026;2022-10-31T19:00:32;16.90;99.90
31133;DHT22;17779;50.942;4.026;2022-10-31T19:02:57;16.90;99.90
31133;DHT22;17779;50.942;4.026;2022-10-31T19:05:23;16.90;99.90